createdAt,value
2018-08-21T00:02:10.584Z,3.97
2018-08-21T00:04:44.524Z,3.60
2018-08-21T00:07:14.300Z,4.70
2018-08-21T00:09:44.161Z,4.20
2018-08-21T00:12:13.847Z,4.70
2018-08-21T00:14:45.897Z,4.63
2018-08-21T00:17:15.600Z,4.13
2018-08-21T00:19:45.321Z,4.07
2018-08-21T00:22:15.089Z,4.27
2018-08-21T00:24:44.598Z,4.67
2018-08-21T00:27:14.387Z,5.07
2018-08-21T00:29:43.917Z,3.90
2018-08-21T00:32:13.662Z,4.77
2018-08-21T00:34:43.796Z,4.80
2018-08-21T00:37:15.560Z,4.57
2018-08-21T00:39:45.504Z,4.70
2018-08-21T00:42:16.928Z,5.67
2018-08-21T00:44:46.718Z,4.57
2018-08-21T00:47:16.540Z,4.93
2018-08-21T00:49:46.228Z,5.00
2018-08-21T00:52:16.033Z,4.50
2018-08-21T00:54:45.708Z,4.93
2018-08-21T00:57:15.481Z,4.47
2018-08-21T00:59:44.996Z,5.03
2018-08-21T01:02:14.656Z,4.77
2018-08-21T01:04:44.207Z,5.20
2018-08-21T01:07:13.846Z,5.40
2018-08-21T01:09:43.525Z,5.23
2018-08-21T01:12:13.220Z,5.20
2018-08-21T01:14:42.852Z,5.03
2018-08-21T01:17:12.474Z,5.60
2018-08-21T01:19:42.156Z,4.70
2018-08-21T01:22:12.036Z,5.80
2018-08-21T01:24:41.685Z,5.67
2018-08-21T01:27:11.513Z,4.60
2018-08-21T01:29:41.206Z,5.07
2018-08-21T01:32:10.812Z,5.40
2018-08-21T01:34:40.563Z,6.37
2018-08-21T01:37:10.233Z,5.60
2018-08-21T01:39:39.728Z,4.83
2018-08-21T01:42:09.198Z,4.90
2018-08-21T01:44:39.435Z,5.20
2018-08-21T01:47:09.898Z,5.50
2018-08-21T01:49:40.688Z,6.40
2018-08-21T01:52:10.423Z,5.80
2018-08-21T01:54:40.226Z,5.00
2018-08-21T01:57:09.857Z,5.37
2018-08-21T01:59:39.338Z,5.00
2018-08-21T02:02:09.070Z,5.70
2018-08-21T02:04:41.693Z,5.90
2018-08-21T02:07:11.445Z,6.80
2018-08-21T02:09:41.169Z,7.03
2018-08-21T02:12:10.827Z,5.87
2018-08-21T02:14:40.484Z,6.13
2018-08-21T02:17:10.285Z,6.30
2018-08-21T02:19:39.908Z,6.30
2018-08-21T02:22:09.619Z,5.43
2018-08-21T02:24:39.232Z,6.60
2018-08-21T02:27:09.237Z,6.90
2018-08-21T02:29:39.993Z,5.80
2018-08-21T02:32:10.128Z,6.17
2018-08-21T02:34:39.996Z,6.13
2018-08-21T02:37:09.454Z,6.00
2018-08-21T02:39:39.146Z,5.80
2018-08-21T02:42:09.530Z,5.70
2018-08-21T02:44:39.264Z,6.67
2018-08-21T02:47:08.862Z,6.20
2018-08-21T02:49:38.526Z,5.80
2018-08-21T02:52:08.470Z,6.73
2018-08-21T02:54:38.093Z,5.53
2018-08-21T02:57:07.828Z,5.40
2018-08-21T02:59:37.386Z,6.13
2018-08-21T03:02:06.898Z,6.10
2018-08-21T03:04:36.506Z,7.03
2018-08-21T03:07:06.061Z,6.87
2018-08-21T03:09:35.750Z,6.53
2018-08-21T03:12:05.338Z,6.40
2018-08-21T03:14:35.079Z,7.00
2018-08-21T03:17:04.759Z,6.27
2018-08-21T03:19:34.399Z,6.30
2018-08-21T03:22:04.096Z,7.13
2018-08-21T03:24:33.776Z,6.73
2018-08-21T03:27:03.609Z,7.00
2018-08-21T03:29:33.204Z,6.60
2018-08-21T03:32:02.848Z,7.67
2018-08-21T03:34:32.511Z,7.00
2018-08-21T03:37:01.982Z,6.87
2018-08-21T03:39:45.957Z,6.23
2018-08-21T03:42:16.373Z,6.50
2018-08-21T03:45:00.016Z,7.57
2018-08-21T03:47:36.590Z,7.30
2018-08-21T03:50:11.243Z,7.23
2018-08-21T03:52:41.076Z,6.30
2018-08-21T03:55:11.917Z,7.00
2018-08-21T03:57:41.577Z,6.77
2018-08-21T04:00:16.812Z,7.20
2018-08-21T04:02:46.474Z,6.40
2018-08-21T04:05:16.076Z,7.60
2018-08-21T04:07:46.471Z,7.00
2018-08-21T04:10:16.763Z,7.73
2018-08-21T04:12:47.010Z,6.47
2018-08-21T04:15:16.547Z,7.80
2018-08-21T04:17:46.262Z,7.27
2018-08-21T04:20:15.971Z,6.57
2018-08-21T04:22:45.685Z,7.50
2018-08-21T04:25:16.354Z,6.83
2018-08-21T04:27:46.182Z,8.13
2018-08-21T04:30:18.564Z,7.60
2018-08-21T04:32:49.178Z,7.20
2018-08-21T04:35:18.722Z,7.57
2018-08-21T04:37:48.392Z,6.70
2018-08-21T04:40:18.252Z,8.03
2018-08-21T04:42:47.766Z,7.40
2018-08-21T04:45:17.261Z,7.67
2018-08-21T04:47:47.009Z,7.33
2018-08-21T04:50:16.583Z,8.00
2018-08-21T04:52:46.723Z,7.60
2018-08-21T04:55:16.435Z,8.23
2018-08-21T04:57:46.132Z,6.57
2018-08-21T05:00:15.755Z,6.53
2018-08-21T05:02:50.087Z,7.77
2018-08-21T05:05:20.242Z,6.20
2018-08-21T05:07:55.988Z,7.00
2018-08-21T05:10:25.904Z,7.03
2018-08-21T05:12:57.295Z,6.03
2018-08-21T05:15:31.789Z,6.20
2018-08-21T05:18:03.156Z,6.80
2018-08-21T05:20:34.169Z,7.20
2018-08-21T05:23:03.698Z,7.03
2018-08-21T05:25:45.337Z,7.33
2018-08-21T05:28:15.566Z,7.27
2018-08-21T05:30:52.495Z,7.93
2018-08-21T05:33:23.534Z,6.77
2018-08-21T05:38:47.327Z,6.40
2018-08-21T05:41:17.124Z,5.80
2018-08-21T05:43:46.954Z,6.10
2018-08-21T05:46:16.769Z,7.10
2018-08-21T05:48:46.803Z,6.70
2018-08-21T05:51:16.506Z,5.93
2018-08-21T05:53:46.227Z,6.20
2018-08-21T05:56:15.792Z,6.80
2018-08-21T05:58:50.527Z,6.73
2018-08-21T06:01:27.290Z,6.37
2018-08-21T06:03:59.597Z,7.13
2018-08-21T06:06:29.398Z,5.80
2018-08-21T06:08:59.945Z,6.17
2018-08-21T06:11:29.752Z,6.27
2018-08-21T06:13:59.445Z,6.27
2018-08-21T06:16:29.187Z,5.67
2018-08-21T06:19:14.508Z,4.63
2018-08-21T06:21:44.354Z,4.80
2018-08-21T06:24:13.950Z,3.97
2018-08-21T06:26:43.581Z,3.80
2018-08-21T06:29:13.261Z,3.30
2018-08-21T06:31:42.991Z,3.57
2018-08-21T06:34:12.568Z,3.17
2018-08-21T06:36:42.163Z,3.23
2018-08-21T06:39:16.970Z,3.47
2018-08-21T06:41:46.703Z,3.27
2018-08-21T06:44:18.681Z,3.83
2018-08-21T06:46:49.744Z,3.77
2018-08-21T06:49:21.423Z,3.00
2018-08-21T06:51:51.322Z,3.80
2018-08-21T06:54:23.546Z,3.10
2018-08-21T06:56:53.635Z,3.67
2018-08-21T06:59:24.639Z,3.70
2018-08-21T07:01:59.377Z,4.03
2018-08-21T07:04:29.064Z,5.00
2018-08-21T07:06:59.005Z,6.30
2018-08-21T07:09:28.699Z,5.80
2018-08-21T07:11:58.184Z,4.30
2018-08-21T07:14:35.113Z,5.70
2018-08-21T07:17:04.709Z,4.73
2018-08-21T07:19:38.110Z,6.00
2018-08-21T07:22:07.775Z,6.00
2018-08-21T07:24:43.474Z,6.00
2018-08-21T07:27:28.605Z,5.30
2018-08-21T07:30:01.376Z,6.30
2018-08-21T07:32:41.761Z,5.90
2018-08-21T07:35:12.272Z,5.97
2018-08-21T07:37:45.188Z,6.70
2018-08-21T07:40:15.312Z,6.13
2018-08-21T07:42:45.045Z,5.80
2018-08-21T07:45:15.774Z,5.30
2018-08-21T07:47:51.638Z,5.27
2018-08-21T07:50:21.219Z,6.07
2018-08-21T07:52:56.064Z,6.00
2018-08-21T07:55:25.635Z,6.10
2018-08-21T07:57:55.703Z,6.10
2018-08-21T08:00:25.612Z,6.63
2018-08-21T08:02:58.360Z,5.70
2018-08-21T08:05:29.499Z,5.53
2018-08-21T08:07:59.911Z,6.60
2018-08-21T08:10:31.934Z,6.30
2018-08-21T08:13:03.289Z,5.37
2018-08-21T08:15:33.184Z,5.03
2018-08-21T08:18:06.363Z,4.93
2018-08-21T08:20:36.011Z,5.40
2018-08-21T08:23:05.702Z,4.80
2018-08-21T08:25:35.297Z,5.67
2018-08-21T08:28:04.923Z,4.63
2018-08-21T08:30:34.617Z,4.40
2018-08-21T08:33:04.309Z,4.77
2018-08-21T08:35:34.130Z,4.77
2018-08-21T08:38:08.849Z,4.00
2018-08-21T08:40:39.335Z,5.03
2018-08-21T08:43:10.918Z,5.60
2018-08-21T08:45:49.671Z,4.50
2018-08-21T08:48:20.853Z,4.60
2018-08-21T08:50:50.828Z,5.10
2018-08-21T08:53:20.473Z,5.60
2018-08-21T08:55:53.125Z,4.70
2018-08-21T08:58:27.131Z,4.90
2018-08-21T09:01:01.906Z,4.10
2018-08-21T09:03:51.681Z,4.40
2018-08-21T09:06:28.407Z,3.90
2018-08-21T09:08:58.144Z,4.60
2018-08-21T09:11:31.893Z,3.73
2018-08-21T09:14:01.524Z,4.73
2018-08-21T09:16:31.445Z,4.97
2018-08-21T09:19:00.986Z,5.30
2018-08-21T09:21:30.451Z,4.97
2018-08-21T09:24:00.177Z,4.00
2018-08-21T09:26:34.953Z,3.87
2018-08-21T09:29:04.709Z,4.40
2018-08-21T09:31:39.922Z,5.10
2018-08-21T09:34:09.737Z,5.13
2018-08-21T09:36:47.832Z,4.43
2018-08-21T09:39:17.999Z,4.57
2018-08-21T09:41:47.897Z,5.07
2018-08-21T09:44:17.565Z,4.33
2018-08-21T09:46:47.434Z,5.53
2018-08-21T09:49:17.045Z,4.20
2018-08-21T09:51:46.781Z,4.00
2018-08-21T09:54:16.456Z,4.80
2018-08-21T09:56:46.874Z,4.40
2018-08-21T09:59:21.695Z,4.87
2018-08-21T10:01:56.794Z,5.10
2018-08-21T10:04:31.539Z,5.03
2018-08-21T10:07:02.003Z,4.87
2018-08-21T10:09:31.508Z,4.23
2018-08-21T10:12:01.277Z,4.43
2018-08-21T10:14:30.946Z,4.90
2018-08-21T10:17:04.234Z,5.27
2018-08-21T10:19:34.033Z,4.53
2018-08-21T10:22:04.642Z,4.30
2018-08-21T10:24:34.291Z,4.33
2018-08-21T10:27:04.078Z,3.97
2018-08-21T10:29:33.679Z,4.23
2018-08-21T10:32:03.358Z,4.27
2018-08-21T10:34:36.170Z,4.40
2018-08-21T10:37:05.910Z,4.07
2018-08-21T10:39:35.502Z,4.07
2018-08-21T10:42:05.086Z,3.27
2018-08-21T10:44:34.909Z,3.23
2018-08-21T10:47:04.592Z,4.00
2018-08-21T10:49:34.174Z,3.87
2018-08-21T10:52:04.261Z,4.03
2018-08-21T10:54:33.915Z,4.40
2018-08-21T10:57:03.508Z,3.37
2018-08-21T10:59:33.138Z,3.60
2018-08-21T11:02:02.938Z,3.20
2018-08-21T11:04:32.454Z,3.20
2018-08-21T11:07:02.281Z,3.53
2018-08-21T11:09:31.947Z,2.70
2018-08-21T11:12:01.489Z,4.00
2018-08-21T11:14:31.165Z,4.23
2018-08-21T11:17:01.216Z,4.20
2018-08-21T11:19:30.932Z,4.90
2018-08-21T11:22:00.605Z,4.10
2018-08-21T11:24:30.339Z,4.20
2018-08-21T11:27:00.901Z,3.50
2018-08-21T11:29:30.613Z,3.53
2018-08-21T11:32:00.212Z,3.40
2018-08-21T11:34:30.066Z,3.20
2018-08-21T11:36:59.679Z,3.90
2018-08-21T11:39:29.385Z,3.90
2018-08-21T11:41:59.296Z,3.10
2018-08-21T11:44:28.891Z,3.53
2018-08-21T11:46:58.747Z,3.60
2018-08-21T11:49:28.540Z,3.30
2018-08-21T11:51:58.596Z,3.47
2018-08-21T11:54:28.363Z,3.80
2018-08-21T11:56:58.326Z,3.90
2018-08-21T11:59:27.777Z,3.20
2018-08-21T12:01:57.531Z,3.60
2018-08-21T12:04:27.261Z,4.10
2018-08-21T12:06:56.756Z,2.70
2018-08-21T12:09:26.241Z,3.43
2018-08-21T12:11:55.956Z,3.40
2018-08-21T12:14:25.516Z,3.80
2018-08-21T12:16:55.082Z,3.30
2018-08-21T12:19:24.822Z,4.33
2018-08-21T12:21:54.505Z,5.00
2018-08-21T12:24:24.141Z,3.37
2018-08-21T12:26:53.767Z,3.90
2018-08-21T12:29:23.587Z,3.87
2018-08-21T12:31:53.158Z,4.00
2018-08-21T12:34:22.988Z,3.57
2018-08-21T12:36:53.145Z,3.33
2018-08-21T12:39:22.924Z,4.57
2018-08-21T12:41:52.539Z,3.63
2018-08-21T12:44:22.050Z,3.60
2018-08-21T12:46:51.753Z,4.13
2018-08-21T12:49:21.753Z,3.47
2018-08-21T12:51:51.439Z,3.20
2018-08-21T12:54:21.075Z,3.50
2018-08-21T12:56:50.732Z,3.63
2018-08-21T12:59:20.264Z,3.67
2018-08-21T13:01:49.768Z,3.70
2018-08-21T13:04:19.683Z,3.23
2018-08-21T13:06:49.415Z,3.70
2018-08-21T13:09:23.137Z,3.50
2018-08-21T13:11:52.802Z,3.47
2018-08-21T13:14:22.374Z,3.30
2018-08-21T13:16:52.054Z,3.13
2018-08-21T13:19:21.857Z,3.63
2018-08-21T13:21:51.639Z,3.20
2018-08-21T13:24:21.318Z,3.00
2018-08-21T13:26:50.878Z,3.30
2018-08-21T13:29:20.492Z,3.30
2018-08-21T13:31:49.987Z,3.63
2018-08-21T13:34:19.656Z,3.20
2018-08-21T13:36:49.375Z,3.17
2018-08-21T13:39:19.112Z,3.70
2018-08-21T13:41:48.861Z,3.90
2018-08-21T13:44:18.680Z,4.03
2018-08-21T13:46:48.276Z,4.00
2018-08-21T13:49:18.308Z,3.97
2018-08-21T13:51:48.200Z,3.73
2018-08-21T13:54:17.895Z,4.03
2018-08-21T13:56:47.872Z,3.27
2018-08-21T13:59:18.200Z,3.27
2018-08-21T14:01:47.840Z,3.83
2018-08-21T14:04:17.649Z,3.57
2018-08-21T14:06:47.578Z,3.13
2018-08-21T14:09:17.325Z,3.40
2018-08-21T14:11:46.870Z,3.60
2018-08-21T14:14:16.713Z,3.70
2018-08-21T14:16:46.237Z,3.33
2018-08-21T14:19:16.104Z,3.40
2018-08-21T14:21:50.463Z,3.57
2018-08-21T14:24:19.945Z,3.67
2018-08-21T14:26:52.684Z,4.50
2018-08-21T14:29:22.374Z,3.50
2018-08-21T14:31:52.065Z,4.23
2018-08-21T14:34:21.584Z,3.47
2018-08-21T14:36:51.247Z,3.57
2018-08-21T14:39:20.880Z,3.07
2018-08-21T14:41:52.571Z,3.70
2018-08-21T14:44:23.139Z,3.30
2018-08-21T14:46:52.752Z,3.97
2018-08-21T14:49:22.510Z,3.33
2018-08-21T14:51:52.289Z,2.73
2018-08-21T14:54:21.995Z,3.50
2018-08-21T14:56:51.693Z,3.37
2018-08-21T14:59:21.304Z,3.63
2018-08-21T15:01:50.928Z,3.37
2018-08-21T15:04:20.556Z,3.60
2018-08-21T15:06:50.271Z,3.50
2018-08-21T15:09:19.770Z,3.67
2018-08-21T15:11:49.360Z,3.70
2018-08-21T15:14:18.958Z,3.63
2018-08-21T15:16:48.834Z,3.60
2018-08-21T15:19:18.604Z,3.67
2018-08-21T15:21:48.443Z,4.83
2018-08-21T15:24:18.138Z,3.53
2018-08-21T15:26:47.824Z,3.70
2018-08-21T15:29:17.313Z,3.60
2018-08-21T15:31:47.160Z,4.10
2018-08-21T15:34:16.698Z,3.20
2018-08-21T15:36:46.351Z,3.27
2018-08-21T15:39:16.169Z,4.30
2018-08-21T15:41:45.764Z,3.53
2018-08-21T15:44:15.270Z,3.30
2018-08-21T15:46:47.747Z,3.57
2018-08-21T15:49:17.340Z,4.37
2018-08-21T15:51:46.984Z,3.53
2018-08-21T15:54:16.725Z,3.73
2018-08-21T15:56:46.561Z,3.53
2018-08-21T15:59:16.363Z,3.37
2018-08-21T16:01:46.051Z,4.03
2018-08-21T16:04:15.626Z,3.93
2018-08-21T16:06:45.266Z,4.00
2018-08-21T16:09:14.970Z,4.97
2018-08-21T16:11:44.962Z,3.50
2018-08-21T16:14:17.461Z,4.10
2018-08-21T16:16:47.255Z,4.60
2018-08-21T16:19:17.168Z,3.97
2018-08-21T16:21:47.232Z,3.60
2018-08-21T16:24:16.880Z,3.30
2018-08-21T16:26:46.647Z,4.33
2018-08-21T16:29:16.412Z,3.70
2018-08-21T16:31:46.186Z,3.57
2018-08-21T16:34:15.883Z,3.70
2018-08-21T16:36:45.501Z,3.57
2018-08-21T16:39:15.369Z,3.83
2018-08-21T16:41:44.972Z,3.80
2018-08-21T16:44:14.659Z,3.87
2018-08-21T16:46:44.299Z,3.57
2018-08-21T16:49:14.901Z,4.77
2018-08-21T16:51:44.732Z,3.90
2018-08-21T16:54:14.574Z,4.23
2018-08-21T16:56:44.323Z,3.80
2018-08-21T16:59:13.945Z,3.97
2018-08-21T17:01:43.580Z,4.20
2018-08-21T17:04:13.330Z,4.53
2018-08-21T17:06:43.267Z,4.90
2018-08-21T17:09:13.007Z,3.93
2018-08-21T17:11:43.340Z,4.50
2018-08-21T17:14:13.049Z,4.40
2018-08-21T17:16:42.820Z,3.90
2018-08-21T17:19:12.589Z,4.30
2018-08-21T17:21:42.461Z,4.70
2018-08-21T17:24:12.115Z,5.10
2018-08-21T17:26:41.971Z,4.70
2018-08-21T17:29:12.135Z,5.77
2018-08-21T17:31:48.601Z,4.73
2018-08-21T17:34:18.294Z,4.80
2018-08-21T17:36:48.055Z,4.27
2018-08-21T17:39:17.555Z,4.63
2018-08-21T17:41:47.108Z,3.70
2018-08-21T17:44:16.748Z,4.03
2018-08-21T17:46:47.076Z,4.10
2018-08-21T17:49:16.770Z,4.67
2018-08-21T17:51:46.522Z,4.27
2018-08-21T17:54:16.501Z,4.50
2018-08-21T17:56:46.266Z,4.40
2018-08-21T17:59:16.022Z,4.70
2018-08-21T18:01:45.791Z,4.63
2018-08-21T18:04:19.946Z,4.67
2018-08-21T18:06:49.859Z,3.40
2018-08-21T18:09:19.678Z,4.27
2018-08-21T18:11:49.483Z,4.33
2018-08-21T18:14:19.335Z,3.70
2018-08-21T18:16:49.005Z,3.73
2018-08-21T18:19:18.547Z,5.10
2018-08-21T18:21:48.228Z,4.50
2018-08-21T18:24:17.914Z,4.20
2018-08-21T18:26:47.644Z,4.90
2018-08-21T18:29:17.302Z,4.77
2018-08-21T18:31:47.702Z,5.07
2018-08-21T18:34:17.408Z,4.77
2018-08-21T18:36:47.362Z,4.63
2018-08-21T18:39:17.300Z,5.00
2018-08-21T18:41:51.505Z,4.40
2018-08-21T18:44:21.420Z,4.43
2018-08-21T18:46:51.073Z,6.10
2018-08-21T18:49:21.056Z,4.77
2018-08-21T18:51:50.813Z,4.83
2018-08-21T18:54:20.462Z,5.30
2018-08-21T18:56:50.221Z,4.87
2018-08-21T18:59:19.917Z,4.73
2018-08-21T19:01:49.607Z,4.90
2018-08-21T19:04:19.693Z,4.37
2018-08-21T19:06:49.349Z,4.60
2018-08-21T19:09:19.014Z,5.03
2018-08-21T19:11:48.604Z,4.23
2018-08-21T19:14:18.295Z,4.37
2018-08-21T19:16:47.998Z,4.10
2018-08-21T19:19:17.650Z,5.03
2018-08-21T19:21:47.508Z,5.13
2018-08-21T19:24:17.226Z,4.83
2018-08-21T19:26:46.948Z,4.90
2018-08-21T19:29:16.594Z,4.13
2018-08-21T19:31:46.250Z,4.70
2018-08-21T19:34:15.956Z,4.13
2018-08-21T19:36:45.707Z,4.77
2018-08-21T19:39:15.676Z,5.37
2018-08-21T19:41:45.394Z,6.10
2018-08-21T19:44:15.189Z,6.10
2018-08-21T19:46:45.010Z,5.17
2018-08-21T19:49:14.748Z,4.90
2018-08-21T19:51:47.129Z,6.03
2018-08-21T19:54:16.714Z,5.30
2018-08-21T19:56:46.344Z,4.60
2018-08-21T19:59:16.129Z,5.20
2018-08-21T20:01:46.157Z,5.10
2018-08-21T20:04:15.802Z,4.77
2018-08-21T20:06:46.051Z,4.37
2018-08-21T20:09:15.859Z,4.73
2018-08-21T20:11:45.628Z,5.60
2018-08-21T20:14:15.352Z,5.13
2018-08-21T20:16:45.240Z,5.07
2018-08-21T20:19:14.957Z,5.60
2018-08-21T20:21:46.357Z,5.00
2018-08-21T20:24:15.905Z,5.03
2018-08-21T20:26:45.512Z,4.40
2018-08-21T20:29:15.141Z,5.60
2018-08-21T20:31:44.724Z,5.27
2018-08-21T20:34:14.459Z,4.97
2018-08-21T20:36:44.162Z,5.27
2018-08-21T20:39:13.711Z,4.93
2018-08-21T20:41:43.458Z,5.17
2018-08-21T20:44:13.363Z,4.23
2018-08-21T20:46:43.155Z,5.30
2018-08-21T20:49:12.784Z,4.73
2018-08-21T20:51:43.372Z,4.50
2018-08-21T20:54:13.044Z,5.10
2018-08-21T20:56:42.911Z,5.07
2018-08-21T20:59:12.585Z,4.47
2018-08-21T21:01:42.678Z,4.20
2018-08-21T21:04:12.407Z,5.17
2018-08-21T21:06:42.116Z,4.53
2018-08-21T21:09:13.801Z,4.67
2018-08-21T21:11:44.284Z,4.00
2018-08-21T21:14:30.729Z,4.80
2018-08-21T21:17:16.955Z,4.83
2018-08-21T21:20:03.083Z,5.70
2018-08-21T21:22:49.365Z,3.70
2018-08-21T21:25:19.089Z,4.00
2018-08-21T21:27:48.765Z,3.37
2018-08-21T21:30:18.325Z,4.13
2018-08-21T21:32:47.903Z,4.07
2018-08-21T21:35:24.152Z,4.60
2018-08-21T21:37:53.961Z,3.93
2018-08-21T21:40:23.609Z,3.80
2018-08-21T21:42:53.698Z,4.30
2018-08-21T21:45:23.319Z,4.70
2018-08-21T21:47:53.053Z,4.93
2018-08-21T21:50:23.976Z,5.07
2018-08-21T21:52:53.909Z,4.67
2018-08-21T21:55:23.626Z,3.97
2018-08-21T21:57:53.355Z,3.73
2018-08-21T22:00:24.276Z,3.83
2018-08-21T22:02:54.691Z,3.77
2018-08-21T22:05:24.940Z,3.50
2018-08-21T22:07:54.829Z,4.30
2018-08-21T22:10:24.731Z,4.23
2018-08-21T22:12:54.425Z,5.50
2018-08-21T22:15:24.132Z,3.53
2018-08-21T22:17:53.790Z,3.70
2018-08-21T22:20:23.981Z,4.50
2018-08-21T22:22:53.574Z,3.87
2018-08-21T22:25:23.404Z,2.90
2018-08-21T22:27:53.112Z,4.30
2018-08-21T22:30:22.868Z,3.97
2018-08-21T22:32:52.395Z,3.70
2018-08-21T22:35:22.174Z,3.87
2018-08-21T22:37:52.120Z,3.73
2018-08-21T22:40:21.976Z,4.03
2018-08-21T22:42:51.664Z,3.50
2018-08-21T22:45:21.764Z,3.77
2018-08-21T22:47:51.321Z,5.17
2018-08-21T22:50:20.984Z,3.17
2018-08-21T22:52:50.706Z,3.33
2018-08-21T22:55:20.443Z,3.53
2018-08-21T22:57:50.006Z,3.67
2018-08-21T23:00:19.740Z,3.37
2018-08-21T23:02:49.374Z,2.77
2018-08-21T23:05:19.140Z,3.57
2018-08-21T23:07:48.956Z,3.57
2018-08-21T23:10:18.399Z,3.30
2018-08-21T23:12:48.065Z,3.30
2018-08-21T23:15:18.302Z,3.47
2018-08-21T23:17:48.025Z,2.97
2018-08-21T23:20:17.729Z,2.90
2018-08-21T23:22:47.671Z,4.03
2018-08-21T23:25:17.406Z,3.67
2018-08-21T23:27:47.059Z,3.60
2018-08-21T23:30:16.764Z,3.30
2018-08-21T23:32:46.269Z,4.13
2018-08-21T23:35:15.879Z,3.37
2018-08-21T23:37:45.767Z,2.77
2018-08-21T23:40:15.390Z,3.27
2018-08-21T23:42:45.110Z,3.67
2018-08-21T23:45:15.652Z,3.10
2018-08-21T23:47:45.224Z,3.37
2018-08-21T23:50:14.967Z,3.67
2018-08-21T23:52:44.580Z,2.93
2018-08-21T23:55:14.277Z,3.90
2018-08-21T23:57:43.880Z,3.00
